Norman, OK

11:34 AM CST on December 16, 2017 (GMT -0600)
Univ. Of Oklahoma Westheimer

Weather History for KOUN - November, 2013

Change the Weather History Date:

Sunday, November 3, 2013

  Actual Average Record
Temperature  
Mean Temperature 50 °F -  
Max Temperature 59 °F 59 °F 80 °F (2003)
Min Temperature 41 °F 39 °F 19 °F (1951)
Degree Days  
Heating Degree Days 15    
Moisture  
Dew Point 38 °F    
Average Humidity 61    
Maximum Humidity 76    
Minimum Humidity 45    
Precipitation  
Precipitation 0.00 in - - ()
Sea Level Pressure  
Sea Level Pressure 30.07 in    
Wind  
Wind Speed 12 mph (SSE)    
Max Wind Speed 22 mph    
Max Gust Speed 29 mph    
Visibility 10 miles    
Events      
Averages and records for this station are not official NWS values.
T = Trace of Precipitation, MM = Missing Value Source: NWS Daily Summary

Daily Weather History Graph

Daily Weather History Graph

Search for Another Location

Airport or City:

Trip Planner

Search our weather history database for the weather conditions in past years. The results will help you decide how hot, cold, wet, or windy it might be!

Date:

Astronomy

Nov. 03, 2013 Rise Set
Actual Time 6:53 AM CST 5:32 PM CST
Civil Twilight 6:27 AM CST 5:59 PM CST
Nautical Twilight 5:56 AM CST 6:29 PM CST
Astronomical Twilight 5:27 AM CST 6:59 PM CST
Moon 6:58 AM CST (11/3) 5:50 PM CST (11/3)
Length of Visible Light 11h 32m
Length of Day
10h 39m
New Moon, 0% of the Moon is Illuminated
Nov 3
New Moon
Nov 9
First Quarter
Nov 17
Full
Nov 25
Last Quarter
Dec 2
New

Hourly Weather History & Observations

Time (CST) Temp. Windchill Dew Point Humidity Pressure Visibility Wind Dir Wind Speed Gust Speed Precip Events Conditions
12:15 AM 44.6 °F 41.4 °F 33.8 °F 66% 30.20 in 10.0 mi SE 5.8 mph - N/A   Clear
12:35 AM 44.6 °F 40.7 °F 33.8 °F 66% 30.19 in 10.0 mi ESE 6.9 mph - N/A   Clear
12:55 AM 44.6 °F 40.7 °F 33.8 °F 66% 30.18 in 10.0 mi SE 6.9 mph - N/A   Clear
1:15 AM 44.6 °F 43.1 °F 33.8 °F 66% 30.18 in 10.0 mi SSE 3.5 mph - N/A   Clear
1:35 AM 42.8 °F 40.1 °F 33.8 °F 70% 30.18 in 10.0 mi SSE 4.6 mph - N/A   Clear
1:55 AM 41.0 °F 37.1 °F 33.8 °F 76% 30.18 in 10.0 mi SSE 5.8 mph - N/A   Clear
1:15 AM 42.8 °F 39.3 °F 33.8 °F 70% 30.17 in 10.0 mi SE 5.8 mph - N/A   Clear
1:35 AM 42.8 °F 38.6 °F 33.8 °F 70% 30.17 in 10.0 mi SSE 6.9 mph - N/A   Clear
1:55 AM 42.8 °F 38.0 °F 33.8 °F 70% 30.17 in 10.0 mi SSE 8.1 mph - N/A   Clear
2:15 AM 42.8 °F 39.3 °F 33.8 °F 70% 30.17 in 10.0 mi SSE 5.8 mph - N/A   Clear
2:35 AM 41.0 °F 37.1 °F 33.8 °F 76% 30.17 in 10.0 mi SSE 5.8 mph - N/A   Clear
2:55 AM 41.0 °F 35.8 °F 33.8 °F 76% 30.16 in 10.0 mi SSE 8.1 mph - N/A   Clear
3:15 AM 42.8 °F 38.0 °F 33.8 °F 70% 30.16 in 10.0 mi SSE 8.1 mph - N/A   Clear
3:35 AM 42.8 °F 37.0 °F 33.8 °F 70% 30.16 in 10.0 mi SSE 10.4 mph - N/A   Clear
3:55 AM 42.8 °F 37.5 °F 33.8 °F 70% 30.16 in 10.0 mi SSE 9.2 mph - N/A   Clear
4:15 AM 41.0 °F 36.4 °F 33.8 °F 76% 30.16 in 10.0 mi South 6.9 mph - N/A   Clear
4:35 AM 41.0 °F 35.8 °F 33.8 °F 76% 30.15 in 10.0 mi SSE 8.1 mph - N/A   Clear
4:55 AM 41.0 °F 35.8 °F 33.8 °F 76% 30.15 in 10.0 mi SSE 8.1 mph - N/A   Clear
5:15 AM 42.8 °F 36.2 °F 33.8 °F 70% 30.15 in 10.0 mi SSE 12.7 mph - N/A   Clear
5:35 AM 42.8 °F 35.8 °F 35.6 °F 76% 30.15 in 10.0 mi SSE 13.8 mph - N/A   Clear
5:55 AM 42.8 °F 35.8 °F 35.6 °F 76% 30.15 in 10.0 mi SSE 13.8 mph - N/A   Clear
6:15 AM 42.8 °F 35.4 °F 35.6 °F 76% 30.14 in 10.0 mi SSE 15.0 mph 18.4 mph N/A   Clear
6:35 AM 42.8 °F 35.4 °F 35.6 °F 76% 30.13 in 10.0 mi SSE 15.0 mph - N/A   Clear
6:55 AM 42.8 °F 35.4 °F 35.6 °F 76% 30.13 in 10.0 mi SSE 15.0 mph 19.6 mph N/A   Clear
7:15 AM 42.8 °F 36.2 °F 35.6 °F 76% 30.13 in 10.0 mi SSE 12.7 mph - N/A   Clear
7:35 AM 44.6 °F 38.4 °F 35.6 °F 71% 30.14 in 10.0 mi SSE 12.7 mph 17.3 mph N/A   Clear
7:55 AM 44.6 °F 38.1 °F 35.6 °F 71% 30.14 in 10.0 mi SSE 13.8 mph 18.4 mph N/A   Clear
8:15 AM 46.4 °F 40.7 °F 37.4 °F 71% 30.14 in 10.0 mi SSE 12.7 mph 17.3 mph N/A   Clear
8:35 AM 50.0 °F - 37.4 °F 62% 30.15 in 10.0 mi SSE 12.7 mph - N/A   Unknown
8:55 AM 50.0 °F - 37.4 °F 62% 30.15 in 10.0 mi SSE 16.1 mph 20.7 mph N/A   Clear
9:15 AM 51.8 °F - 37.4 °F 58% 30.14 in 10.0 mi SSE 17.3 mph 26.5 mph N/A   Clear
9:35 AM 51.8 °F - 37.4 °F 58% 30.14 in 10.0 mi SSE 17.3 mph 26.5 mph N/A   Unknown
9:55 AM 53.6 °F - 37.4 °F 54% 30.13 in 10.0 mi SSE 16.1 mph 23.0 mph N/A   Unknown
10:15 AM 53.6 °F - 37.4 °F 54% 30.12 in 10.0 mi SSE 18.4 mph 25.3 mph N/A   Clear
10:35 AM 55.4 °F - 37.4 °F 51% 30.11 in 10.0 mi SSE 16.1 mph 23.0 mph N/A   Clear
10:55 AM 57.2 °F - 37.4 °F 48% 30.11 in 10.0 mi SSE 16.1 mph 25.3 mph N/A   Clear
11:15 AM 59.0 °F - 37.4 °F 45% 30.12 in 10.0 mi SSE 20.7 mph 27.6 mph N/A   Clear
11:35 AM 59.0 °F - 37.4 °F 45% 30.11 in 10.0 mi South 17.3 mph 24.2 mph N/A   Clear
11:55 AM 59.0 °F - 37.4 °F 45% 30.09 in 10.0 mi South 20.7 mph 27.6 mph N/A   Clear
12:15 PM 59.0 °F - 37.4 °F 45% 30.08 in 10.0 mi South 19.6 mph 25.3 mph N/A   Clear
12:35 PM 59.0 °F - 37.4 °F 45% 30.06 in 10.0 mi South 18.4 mph 25.3 mph N/A   Clear
12:55 PM 59.0 °F - 37.4 °F 45% 30.04 in 10.0 mi SSE 18.4 mph 26.5 mph N/A   Clear
1:15 PM 59.0 °F - 39.2 °F 48% 30.01 in 10.0 mi SSE 16.1 mph 20.7 mph N/A   Clear
1:35 PM 59.0 °F - 37.4 °F 45% 30.03 in 10.0 mi South 11.5 mph 20.7 mph N/A   Clear
1:55 PM 59.0 °F - 37.4 °F 45% 29.99 in 10.0 mi SSE 16.1 mph 23.0 mph N/A   Clear
2:15 PM 59.0 °F - 39.2 °F 48% 29.99 in 10.0 mi SSE 16.1 mph - N/A   Clear
2:35 PM 59.0 °F - 39.2 °F 48% 29.98 in 10.0 mi SSE 13.8 mph 19.6 mph N/A   Clear
2:55 PM 59.0 °F - 37.4 °F 45% 29.98 in 10.0 mi SSE 16.1 mph 20.7 mph N/A   Clear
3:15 PM 59.0 °F - 39.2 °F 48% 29.99 in 10.0 mi SSE 13.8 mph - N/A   Unknown
3:35 PM 59.0 °F - 39.2 °F 48% 29.98 in 10.0 mi SSE 12.7 mph 17.3 mph N/A   Unknown
3:55 PM 59.0 °F - 39.2 °F 48% 29.98 in 10.0 mi SE 15.0 mph 20.7 mph N/A   Clear
4:15 PM 59.0 °F - 41.0 °F 51% 29.95 in 10.0 mi SE 18.4 mph 25.3 mph N/A   Clear
4:35 PM 57.2 °F - 41.0 °F 55% 29.96 in 10.0 mi SSE 17.3 mph 25.3 mph N/A   Clear
4:55 PM 57.2 °F - 41.0 °F 55% 29.92 in 10.0 mi SE 21.9 mph 28.8 mph N/A   Clear
5:15 PM 57.2 °F - 41.0 °F 55% 29.97 in 10.0 mi SSE 20.7 mph 24.2 mph N/A   Clear
5:35 PM 55.4 °F - 41.0 °F 58% 29.96 in 10.0 mi SSE 16.1 mph 23.0 mph N/A   Clear
5:55 PM 55.4 °F - 41.0 °F 58% 29.96 in 10.0 mi SSE 19.6 mph 25.3 mph N/A   Clear
6:15 PM 55.4 °F - 41.0 °F 58% 29.96 in 10.0 mi SSE 19.6 mph 23.0 mph N/A   Clear
6:35 PM 55.4 °F - 41.0 °F 58% 29.96 in 10.0 mi SSE 18.4 mph 24.2 mph N/A   Clear
6:55 PM 55.4 °F - 41.0 °F 58% 29.97 in 10.0 mi SSE 17.3 mph 26.5 mph N/A   Clear
7:15 PM 55.4 °F - 41.0 °F 58% 29.98 in 10.0 mi SSE 17.3 mph 25.3 mph N/A   Clear
7:35 PM 55.4 °F - 41.0 °F 58% 29.98 in 10.0 mi SSE 17.3 mph 23.0 mph N/A   Clear
7:55 PM 55.4 °F - 41.0 °F 58% 29.99 in 10.0 mi SSE 18.4 mph 23.0 mph N/A   Clear
8:15 PM 55.4 °F - 41.0 °F 58% 29.97 in 10.0 mi SSE 18.4 mph 25.3 mph N/A   Clear
8:35 PM 55.4 °F - 41.0 °F 58% 29.96 in 10.0 mi SSE 19.6 mph 27.6 mph N/A   Clear
8:55 PM 55.4 °F - 41.0 °F 58% 29.99 in 10.0 mi South 19.6 mph 27.6 mph N/A   Clear
9:15 PM 53.6 °F - 41.0 °F 62% 29.96 in 10.0 mi SSE 21.9 mph 28.8 mph N/A   Clear
9:35 PM 53.6 °F - 42.8 °F 67% 29.98 in 10.0 mi South 19.6 mph 26.5 mph N/A   Clear
9:55 PM 53.6 °F - 42.8 °F 67% 29.98 in 10.0 mi SSE 16.1 mph 23.0 mph N/A   Clear
10:15 PM 53.6 °F - 42.8 °F 67% 29.97 in 10.0 mi SSE 16.1 mph 26.5 mph N/A   Clear
10:35 PM 53.6 °F - 42.8 °F 67% 29.96 in 10.0 mi SSE 19.6 mph 25.3 mph N/A   Clear
10:55 PM 53.6 °F - 42.8 °F 67% 29.94 in 10.0 mi South 19.6 mph 25.3 mph N/A   Clear